createdAt,value
2017-10-03T00:00:01.806Z,16.80
2017-10-03T00:02:29.750Z,16.90
2017-10-03T00:04:58.114Z,16.80
2017-10-03T00:07:25.667Z,16.90
2017-10-03T00:09:53.673Z,16.80
2017-10-03T00:12:21.239Z,16.70
2017-10-03T00:14:49.555Z,16.70
2017-10-03T00:17:17.421Z,16.80
2017-10-03T00:19:45.389Z,16.70
2017-10-03T00:22:13.749Z,16.70
2017-10-03T00:24:41.287Z,16.80
2017-10-03T00:27:08.890Z,16.80
2017-10-03T00:29:37.197Z,16.80
2017-10-03T00:32:05.228Z,16.80
2017-10-03T00:34:33.177Z,16.70
2017-10-03T00:37:01.145Z,16.80
2017-10-03T00:39:28.687Z,16.80
2017-10-03T00:41:57.058Z,16.80
2017-10-03T00:44:24.615Z,16.70
2017-10-03T00:46:52.934Z,16.90
2017-10-03T00:49:20.595Z,16.80
2017-10-03T00:51:48.904Z,16.80
2017-10-03T00:54:16.509Z,16.70
2017-10-03T00:56:44.477Z,16.70
2017-10-03T00:59:12.093Z,16.80
2017-10-03T01:01:40.398Z,16.80
2017-10-03T01:04:08.009Z,16.80
2017-10-03T01:06:35.958Z,16.80
2017-10-03T01:09:04.257Z,16.80
2017-10-03T01:11:31.825Z,16.80
2017-10-03T01:14:00.134Z,16.80
2017-10-03T01:16:27.726Z,16.70
2017-10-03T01:18:55.695Z,16.70
2017-10-03T01:21:23.281Z,16.70
2017-10-03T01:23:50.830Z,16.70
2017-10-03T01:26:18.422Z,16.80
2017-10-03T01:28:46.366Z,16.90
2017-10-03T01:31:13.950Z,16.80
2017-10-03T01:33:41.489Z,16.80
2017-10-03T01:36:09.078Z,16.80
2017-10-03T01:38:37.082Z,16.90
2017-10-03T01:41:05.459Z,17.00
2017-10-03T01:43:33.017Z,17.00
2017-10-03T01:46:00.985Z,17.00
2017-10-03T01:48:29.015Z,17.00
2017-10-03T01:50:56.945Z,17.20
2017-10-03T01:53:24.546Z,17.40
2017-10-03T01:55:52.870Z,17.50
2017-10-03T01:58:20.491Z,17.60
2017-10-03T02:00:48.039Z,17.60
2017-10-03T02:03:15.634Z,17.60
2017-10-03T02:05:43.565Z,17.50
2017-10-03T02:08:11.115Z,17.30
2017-10-03T02:10:39.111Z,17.30
2017-10-03T02:13:07.423Z,17.30
2017-10-03T02:15:35.016Z,17.30
2017-10-03T02:18:02.959Z,17.30
2017-10-03T02:20:30.954Z,17.40
2017-10-03T02:22:58.884Z,17.40
2017-10-03T02:25:26.482Z,17.40
2017-10-03T02:27:54.801Z,17.50
2017-10-03T02:30:22.381Z,17.50
2017-10-03T02:32:50.694Z,17.60
2017-10-03T02:35:18.309Z,17.60
2017-10-03T02:37:46.633Z,17.60
2017-10-03T02:40:14.185Z,17.70
2017-10-03T02:42:42.538Z,17.70
2017-10-03T02:45:10.077Z,17.70
2017-10-03T02:47:38.440Z,17.80
2017-10-03T02:50:06.424Z,17.90
2017-10-03T02:52:34.430Z,17.90
2017-10-03T02:55:02.753Z,17.90
2017-10-03T02:57:31.064Z,17.90
2017-10-03T02:59:59.734Z,17.80
2017-10-03T03:02:28.049Z,17.70
2017-10-03T03:04:55.677Z,17.70
2017-10-03T03:07:23.261Z,17.60
2017-10-03T03:09:50.866Z,17.70
2017-10-03T03:12:18.424Z,17.80
2017-10-03T03:14:46.357Z,17.80
2017-10-03T03:17:13.950Z,17.70
2017-10-03T03:19:42.258Z,17.70
2017-10-03T03:22:09.857Z,17.70
2017-10-03T03:24:37.402Z,17.80
2017-10-03T03:27:05.417Z,17.70
2017-10-03T03:29:32.970Z,17.80
2017-10-03T03:32:00.902Z,17.80
2017-10-03T03:34:29.250Z,17.80
2017-10-03T03:36:57.555Z,17.90
2017-10-03T03:39:25.148Z,17.80
2017-10-03T03:41:52.706Z,17.90
2017-10-03T03:44:20.292Z,17.80
2017-10-03T03:46:49.497Z,17.70
2017-10-03T03:49:17.034Z,17.70
2017-10-03T03:51:44.638Z,17.80
2017-10-03T03:54:12.203Z,17.80
2017-10-03T03:56:40.206Z,17.90
2017-10-03T03:59:07.765Z,17.80
2017-10-03T04:01:36.889Z,17.70
2017-10-03T04:04:04.532Z,17.70
2017-10-03T04:06:32.121Z,17.60
2017-10-03T04:09:00.105Z,17.70
2017-10-03T04:11:27.689Z,17.60
2017-10-03T04:13:56.201Z,17.50
2017-10-03T04:16:23.744Z,17.50
2017-10-03T04:18:51.693Z,17.30
2017-10-03T04:21:20.046Z,17.30
2017-10-03T04:23:47.603Z,17.30
2017-10-03T04:26:15.597Z,17.20
2017-10-03T04:28:43.916Z,17.30
2017-10-03T04:31:11.918Z,17.30
2017-10-03T04:33:39.861Z,17.30
2017-10-03T04:36:07.406Z,17.30
2017-10-03T04:38:35.390Z,17.30
2017-10-03T04:41:03.750Z,17.30
2017-10-03T04:43:31.813Z,17.30
2017-10-03T04:46:00.131Z,17.20
2017-10-03T04:48:28.144Z,17.40
2017-10-03T04:50:57.198Z,17.40
2017-10-03T04:53:24.756Z,17.50
2017-10-03T04:55:53.125Z,17.30
2017-10-03T04:58:20.685Z,17.30
2017-10-03T05:00:48.290Z,17.20
2017-10-03T05:03:15.853Z,17.30
2017-10-03T05:05:44.594Z,17.20
2017-10-03T05:08:12.121Z,17.10
2017-10-03T05:10:40.059Z,17.10
2017-10-03T05:13:07.646Z,17.20
2017-10-03T05:15:35.198Z,17.10
2017-10-03T05:18:03.178Z,17.20
2017-10-03T05:20:31.125Z,17.10
2017-10-03T05:23:00.308Z,17.10
2017-10-03T05:25:27.866Z,17.10
2017-10-03T05:27:56.174Z,17.00
2017-10-03T05:30:23.764Z,16.80
2017-10-03T05:32:52.089Z,17.00
2017-10-03T05:35:19.689Z,17.00
2017-10-03T05:37:48.174Z,16.90
2017-10-03T05:40:15.790Z,17.00
2017-10-03T05:42:44.483Z,16.90
2017-10-03T05:45:12.033Z,16.90
2017-10-03T05:47:40.396Z,16.90
2017-10-03T05:50:07.937Z,16.90
2017-10-03T05:52:35.941Z,16.90
2017-10-03T05:55:04.253Z,17.00
2017-10-03T05:57:31.879Z,16.90
2017-10-03T06:00:00.185Z,16.90
2017-10-03T06:02:27.745Z,17.00
2017-10-03T06:04:56.109Z,17.10
2017-10-03T06:07:23.682Z,17.10
2017-10-03T06:09:51.695Z,17.10
2017-10-03T06:12:19.254Z,17.10
2017-10-03T06:14:47.585Z,17.00
2017-10-03T06:17:15.192Z,17.00
2017-10-03T06:19:43.503Z,17.10
2017-10-03T06:22:11.083Z,17.00
2017-10-03T06:24:39.025Z,16.70
2017-10-03T06:27:07.397Z,16.70
2017-10-03T06:29:34.956Z,16.20
2017-10-03T06:32:03.326Z,16.10
2017-10-03T06:34:30.878Z,16.20
2017-10-03T06:36:58.830Z,16.10
2017-10-03T06:39:26.419Z,16.10
2017-10-03T06:41:54.726Z,15.80
2017-10-03T06:44:22.362Z,16.60
2017-10-03T06:46:50.700Z,15.00
2017-10-03T06:49:19.819Z,14.90
2017-10-03T06:51:48.892Z,14.70
2017-10-03T06:54:16.480Z,14.80
2017-10-03T06:56:44.800Z,15.00
2017-10-03T06:59:13.180Z,15.00
2017-10-03T07:01:42.299Z,15.10
2017-10-03T07:04:09.857Z,15.20
2017-10-03T07:09:07.127Z,15.50
2017-10-03T07:11:35.127Z,15.40
2017-10-03T07:14:03.160Z,15.50
2017-10-03T07:16:31.357Z,15.50
2017-10-03T07:18:59.030Z,15.60
2017-10-03T07:21:26.877Z,15.70
2017-10-03T07:26:23.893Z,15.70
2017-10-03T07:28:52.420Z,15.60
2017-10-03T07:31:20.597Z,15.60
2017-10-03T07:33:49.302Z,15.50
2017-10-03T07:36:18.174Z,15.40
2017-10-03T07:38:47.049Z,15.50
2017-10-03T07:41:15.003Z,15.40
2017-10-03T07:46:12.166Z,15.40
2017-10-03T07:51:09.854Z,15.30
2017-10-03T07:53:39.182Z,15.30
2017-10-03T07:56:07.336Z,15.30
2017-10-03T07:58:34.989Z,15.20
2017-10-03T08:01:04.220Z,15.30
2017-10-03T08:06:02.843Z,15.50
2017-10-03T08:08:31.169Z,15.60
2017-10-03T08:10:59.337Z,15.60
2017-10-03T08:13:27.930Z,15.70
2017-10-03T08:15:56.568Z,15.50
2017-10-03T08:18:24.601Z,15.70
2017-10-03T08:20:53.173Z,15.60
2017-10-03T08:23:21.436Z,15.70
2017-10-03T08:25:49.506Z,15.70
2017-10-03T08:28:17.065Z,15.70
2017-10-03T08:30:45.385Z,15.70
2017-10-03T08:33:13.545Z,15.70
2017-10-03T08:38:10.165Z,15.80
2017-10-03T08:40:37.727Z,15.70
2017-10-03T08:43:05.548Z,15.60
2017-10-03T08:45:34.246Z,15.60
2017-10-03T08:48:02.554Z,15.60
2017-10-03T08:50:30.191Z,15.60
2017-10-03T08:55:27.142Z,15.60
2017-10-03T08:57:55.457Z,15.40
2017-10-03T09:00:23.860Z,15.50
2017-10-03T09:02:51.865Z,15.50
2017-10-03T09:05:19.450Z,15.40
2017-10-03T09:07:47.416Z,15.50
2017-10-03T09:10:15.258Z,15.50
2017-10-03T09:12:43.238Z,15.50
2017-10-03T09:15:11.926Z,15.60
2017-10-03T09:17:40.287Z,15.70
2017-10-03T09:22:38.373Z,15.70
2017-10-03T09:25:06.679Z,15.80
2017-10-03T09:27:34.307Z,15.90
2017-10-03T09:30:01.888Z,15.60
2017-10-03T09:32:29.895Z,15.60
2017-10-03T09:34:57.514Z,15.50
2017-10-03T09:37:25.069Z,15.60
2017-10-03T09:39:53.051Z,15.50
2017-10-03T09:42:21.601Z,15.50
2017-10-03T09:44:49.189Z,15.20
2017-10-03T09:47:17.499Z,15.20
2017-10-03T09:49:46.242Z,15.30
2017-10-03T09:52:14.566Z,15.40
2017-10-03T09:54:42.582Z,15.60
2017-10-03T09:57:10.141Z,16.30
2017-10-03T09:59:38.093Z,17.40
2017-10-03T10:02:06.086Z,17.80
2017-10-03T10:04:33.635Z,18.00
2017-10-03T10:07:01.999Z,17.80
2017-10-03T10:09:29.555Z,18.40
2017-10-03T10:11:57.551Z,18.40
2017-10-03T10:14:25.492Z,18.00
2017-10-03T10:16:54.011Z,17.80
2017-10-03T10:19:21.594Z,18.00
2017-10-03T10:21:49.598Z,18.50
2017-10-03T10:24:17.567Z,18.90
2017-10-03T10:26:45.143Z,18.50
2017-10-03T10:29:12.742Z,18.50
2017-10-03T10:31:40.344Z,18.70
2017-10-03T10:34:08.333Z,18.70
2017-10-03T10:36:35.970Z,18.70
2017-10-03T10:39:03.973Z,18.70
2017-10-03T10:41:31.554Z,18.60
2017-10-03T10:43:59.110Z,18.30
2017-10-03T10:46:26.723Z,18.30
2017-10-03T10:48:55.076Z,18.10
2017-10-03T10:51:22.674Z,18.10
2017-10-03T10:53:50.434Z,18.40
2017-10-03T10:56:18.914Z,18.60
2017-10-03T10:58:47.344Z,18.60
2017-10-03T11:01:14.946Z,18.90
2017-10-03T11:03:42.507Z,18.80
2017-10-03T11:06:10.082Z,18.60
2017-10-03T11:08:37.634Z,18.40
2017-10-03T11:11:06.360Z,18.30
2017-10-03T11:13:34.671Z,17.90
2017-10-03T11:16:02.289Z,18.20
2017-10-03T11:18:30.298Z,18.70
2017-10-03T11:20:57.882Z,18.30
2017-10-03T11:23:37.151Z,18.30
2017-10-03T11:26:05.161Z,18.50
2017-10-03T11:28:32.716Z,18.90
2017-10-03T11:31:00.274Z,18.90
2017-10-03T11:33:27.857Z,19.00
2017-10-03T11:35:55.417Z,19.70
2017-10-03T11:38:22.974Z,19.60
2017-10-03T11:40:50.530Z,19.20
2017-10-03T11:43:19.318Z,19.20
2017-10-03T11:45:46.874Z,19.40
2017-10-03T11:48:14.470Z,19.50
2017-10-03T11:50:42.021Z,19.80
2017-10-03T11:53:09.631Z,20.30
2017-10-03T11:55:37.187Z,20.20
2017-10-03T11:58:05.565Z,20.20
2017-10-03T12:00:33.534Z,20.20
2017-10-03T12:03:01.136Z,20.00
2017-10-03T12:05:29.164Z,20.00
2017-10-03T12:07:56.779Z,19.60
2017-10-03T12:10:24.718Z,19.40
2017-10-03T12:12:52.678Z,19.40
2017-10-03T12:15:21.033Z,19.50
2017-10-03T12:17:49.032Z,19.70
2017-10-03T12:20:16.686Z,19.60
2017-10-03T12:22:44.261Z,19.40
2017-10-03T12:25:11.906Z,19.20
2017-10-03T12:27:39.454Z,19.60
2017-10-03T12:30:07.077Z,20.00
2017-10-03T12:32:34.622Z,20.10
2017-10-03T12:35:02.278Z,20.30
2017-10-03T12:37:29.829Z,20.30
2017-10-03T12:39:58.188Z,20.20
2017-10-03T12:42:25.735Z,20.20
2017-10-03T12:44:53.334Z,20.30
2017-10-03T12:47:20.962Z,20.40
2017-10-03T12:49:48.747Z,21.30
2017-10-03T12:52:16.427Z,21.90
2017-10-03T12:54:44.342Z,22.30
2017-10-03T12:57:12.194Z,22.10
2017-10-03T12:59:39.906Z,21.80
2017-10-03T13:02:07.626Z,21.40
2017-10-03T13:04:35.402Z,21.50
2017-10-03T13:07:03.068Z,21.40
2017-10-03T13:09:30.767Z,21.50
2017-10-03T13:11:58.374Z,21.80
2017-10-03T13:14:26.014Z,21.60
2017-10-03T13:16:53.572Z,21.30
2017-10-03T13:19:21.130Z,21.50
2017-10-03T13:21:48.710Z,21.50
2017-10-03T13:24:16.266Z,20.80
2017-10-03T13:26:43.927Z,20.90
2017-10-03T13:29:12.501Z,20.50
2017-10-03T13:31:40.148Z,20.50
2017-10-03T13:34:07.710Z,20.30
2017-10-03T13:36:35.303Z,20.60
2017-10-03T13:39:02.883Z,20.50
2017-10-03T13:41:30.498Z,21.30
2017-10-03T13:43:58.042Z,21.40
2017-10-03T13:46:25.626Z,21.50
2017-10-03T13:48:53.174Z,21.10
2017-10-03T13:51:20.862Z,21.10
2017-10-03T13:53:48.493Z,20.30
2017-10-03T13:56:16.038Z,19.90
2017-10-03T13:58:43.735Z,20.00
2017-10-03T14:01:11.480Z,20.40
2017-10-03T14:03:39.429Z,20.80
2017-10-03T14:06:07.271Z,21.30
2017-10-03T14:08:34.982Z,21.40
2017-10-03T14:11:02.656Z,22.10
2017-10-03T14:13:30.442Z,22.40
2017-10-03T14:15:58.125Z,22.70
2017-10-03T14:18:25.923Z,22.90
2017-10-03T14:20:53.614Z,23.10
2017-10-03T14:23:21.989Z,23.60
2017-10-03T14:25:49.626Z,23.90
2017-10-03T14:28:17.446Z,24.30
2017-10-03T14:30:45.090Z,24.20
2017-10-03T14:33:12.689Z,24.30
2017-10-03T14:35:40.248Z,24.10
2017-10-03T14:38:07.805Z,24.10
2017-10-03T14:40:35.389Z,24.10
2017-10-03T14:43:02.982Z,23.70
2017-10-03T14:45:30.588Z,23.60
2017-10-03T14:47:58.140Z,23.20
2017-10-03T14:50:25.734Z,23.20
2017-10-03T14:52:53.283Z,23.40
2017-10-03T14:55:20.869Z,23.50
2017-10-03T14:57:48.446Z,23.00
2017-10-03T15:00:16.093Z,23.10
2017-10-03T15:02:43.650Z,23.10
2017-10-03T15:05:11.254Z,23.00
2017-10-03T15:07:38.845Z,22.70
2017-10-03T15:10:07.188Z,22.30
2017-10-03T15:12:34.746Z,22.70
2017-10-03T15:15:02.334Z,23.40
2017-10-03T15:17:29.891Z,23.50
2017-10-03T15:19:57.487Z,24.00
2017-10-03T15:22:25.047Z,24.40
2017-10-03T15:24:52.658Z,24.80
2017-10-03T15:27:20.258Z,25.20
2017-10-03T15:29:47.818Z,25.00
2017-10-03T15:32:15.444Z,25.10
2017-10-03T15:34:42.999Z,25.40
2017-10-03T15:37:10.636Z,25.30
2017-10-03T15:39:38.194Z,24.90
2017-10-03T15:42:05.814Z,24.70
2017-10-03T15:44:33.398Z,24.30
2017-10-03T15:47:00.993Z,23.90
2017-10-03T15:49:28.531Z,23.90
2017-10-03T15:51:56.105Z,24.00
2017-10-03T15:54:23.665Z,24.10
2017-10-03T15:56:51.333Z,24.10
2017-10-03T15:59:18.896Z,24.00
2017-10-03T16:01:46.477Z,23.50
2017-10-03T16:04:14.041Z,23.00
2017-10-03T16:06:41.605Z,22.80
2017-10-03T16:09:09.917Z,22.30
2017-10-03T16:11:37.515Z,22.30
2017-10-03T16:14:05.092Z,21.90
2017-10-03T16:16:33.110Z,21.70
2017-10-03T16:19:00.661Z,21.40
2017-10-03T16:21:28.219Z,21.20
2017-10-03T16:23:55.800Z,21.00
2017-10-03T16:26:23.746Z,20.80
2017-10-03T16:28:52.126Z,20.70
2017-10-03T16:31:19.700Z,20.50
2017-10-03T16:33:47.767Z,20.30
2017-10-03T16:36:15.326Z,20.00
2017-10-03T16:38:48.459Z,20.00
2017-10-03T16:41:16.016Z,19.80
2017-10-03T16:43:43.617Z,19.70
2017-10-03T16:46:11.174Z,19.60
2017-10-03T16:48:38.770Z,19.40
2017-10-03T16:51:06.330Z,19.30
2017-10-03T16:53:34.688Z,19.30
2017-10-03T16:56:03.003Z,19.10
2017-10-03T16:58:31.350Z,19.00
2017-10-03T17:00:58.911Z,18.90
2017-10-03T17:03:26.910Z,18.80
2017-10-03T17:05:54.461Z,18.70
2017-10-03T17:08:22.807Z,18.60
2017-10-03T17:10:50.403Z,18.40
2017-10-03T17:13:18.774Z,18.20
2017-10-03T17:15:46.380Z,18.10
2017-10-03T17:18:23.791Z,18.00
2017-10-03T17:20:51.450Z,17.90
2017-10-03T17:23:19.809Z,17.80
2017-10-03T17:25:48.142Z,17.70
2017-10-03T17:28:15.700Z,17.50
2017-10-03T17:30:43.300Z,17.50
2017-10-03T17:33:11.230Z,17.40
2017-10-03T17:35:38.827Z,17.30
2017-10-03T17:38:06.385Z,17.20
2017-10-03T17:40:33.987Z,17.20
2017-10-03T17:43:02.349Z,17.10
2017-10-03T17:45:29.940Z,17.00
2017-10-03T17:47:57.489Z,17.00
2017-10-03T17:50:25.097Z,16.80
2017-10-03T17:52:52.671Z,16.90
2017-10-03T17:55:20.273Z,17.00
2017-10-03T17:57:48.212Z,17.00
2017-10-03T18:00:15.799Z,16.90
2017-10-03T18:02:44.150Z,16.90
2017-10-03T18:05:11.699Z,16.90
2017-10-03T18:07:40.089Z,16.80
2017-10-03T18:10:08.434Z,16.80
2017-10-03T18:12:36.017Z,16.80
2017-10-03T18:15:03.571Z,16.70
2017-10-03T18:17:31.186Z,16.70
2017-10-03T18:19:58.768Z,16.60
2017-10-03T18:22:26.529Z,16.70
2017-10-03T18:24:54.088Z,16.60
2017-10-03T18:27:21.674Z,16.60
2017-10-03T18:29:49.226Z,16.60
2017-10-03T18:32:17.715Z,16.70
2017-10-03T18:34:45.262Z,16.60
2017-10-03T18:37:12.820Z,16.60
2017-10-03T18:39:40.875Z,16.50
2017-10-03T18:42:09.189Z,16.40
2017-10-03T18:44:36.769Z,16.30
2017-10-03T18:47:04.706Z,16.30
2017-10-03T18:49:32.360Z,16.30
2017-10-03T18:52:00.317Z,16.30
2017-10-03T18:54:27.914Z,16.30
2017-10-03T18:56:57.270Z,16.30
2017-10-03T18:59:24.854Z,16.30
2017-10-03T19:01:52.409Z,16.20
2017-10-03T19:04:20.006Z,16.10
2017-10-03T19:06:47.550Z,16.10
2017-10-03T19:09:15.156Z,15.90
2017-10-03T19:11:42.712Z,15.90
2017-10-03T19:14:11.091Z,15.90
2017-10-03T19:16:38.647Z,15.90
2017-10-03T19:19:06.223Z,15.80
2017-10-03T19:21:34.588Z,15.70
2017-10-03T19:24:02.185Z,15.50
2017-10-03T19:26:30.611Z,15.40
2017-10-03T19:28:58.917Z,15.30
2017-10-03T19:31:26.897Z,15.10
2017-10-03T19:33:54.451Z,15.00
2017-10-03T19:36:22.451Z,14.90
2017-10-03T19:38:50.035Z,14.80
2017-10-03T19:41:18.074Z,14.80
2017-10-03T19:43:45.681Z,14.70
2017-10-03T19:49:05.066Z,14.70
2017-10-03T19:51:32.759Z,14.70
2017-10-03T19:54:00.311Z,14.70
2017-10-03T19:56:28.310Z,14.60
2017-10-03T20:01:25.388Z,14.50
2017-10-03T20:03:53.004Z,14.40
2017-10-03T20:06:21.777Z,14.20
2017-10-03T20:08:49.552Z,14.10
2017-10-03T20:11:17.963Z,14.00
2017-10-03T20:13:45.564Z,13.90
2017-10-03T20:16:13.331Z,13.80
2017-10-03T20:18:41.107Z,13.80
2017-10-03T20:21:09.017Z,13.70
2017-10-03T20:23:37.353Z,13.80
2017-10-03T20:26:05.119Z,14.70
2017-10-03T20:28:33.422Z,13.70
2017-10-03T20:31:00.988Z,13.80
2017-10-03T20:33:28.708Z,13.80
2017-10-03T20:35:56.585Z,13.80
2017-10-03T20:38:25.809Z,13.70
2017-10-03T20:40:54.113Z,13.80
2017-10-03T20:43:22.268Z,13.70
2017-10-03T20:45:50.006Z,13.80
2017-10-03T20:48:17.585Z,13.80
2017-10-03T20:50:45.287Z,13.80
2017-10-03T20:53:13.435Z,13.80
2017-10-03T20:55:41.450Z,13.90
2017-10-03T20:58:09.396Z,13.90
2017-10-03T21:00:37.774Z,14.00
2017-10-03T21:03:05.721Z,14.10
2017-10-03T21:05:54.566Z,14.10
2017-10-03T21:08:22.122Z,14.10
2017-10-03T21:10:49.720Z,14.10
2017-10-03T21:13:17.274Z,14.00
2017-10-03T21:15:44.850Z,13.90
2017-10-03T21:18:13.543Z,13.80
2017-10-03T21:20:41.150Z,13.70
2017-10-03T21:23:09.465Z,13.60
2017-10-03T21:25:37.039Z,13.50
2017-10-03T21:28:04.586Z,13.40
2017-10-03T21:30:32.157Z,13.30
2017-10-03T21:33:00.096Z,13.40
2017-10-03T21:35:27.683Z,13.50
2017-10-03T21:37:55.230Z,13.60
2017-10-03T21:40:22.841Z,13.70
2017-10-03T22:07:10.618Z,12.70
2017-10-03T22:09:38.171Z,12.70
2017-10-03T22:12:05.734Z,12.60
2017-10-03T22:14:33.285Z,12.70
2017-10-03T22:17:00.850Z,12.70
2017-10-03T22:19:28.420Z,12.80
2017-10-03T22:21:56.720Z,12.90
2017-10-03T22:24:24.350Z,13.00
2017-10-03T22:26:52.555Z,13.00
2017-10-03T22:29:20.137Z,13.10
2017-10-03T22:31:47.787Z,13.10
2017-10-03T22:34:16.108Z,13.20
2017-10-03T22:36:43.707Z,13.30
2017-10-03T22:39:11.294Z,13.40
2017-10-03T22:41:38.858Z,13.50
2017-10-03T22:44:06.442Z,13.50
2017-10-03T22:46:34.764Z,13.40
2017-10-03T22:49:02.350Z,13.40
2017-10-03T22:51:35.595Z,13.30
2017-10-03T22:54:03.743Z,13.10
2017-10-03T22:56:31.292Z,13.30
2017-10-03T22:59:00.028Z,13.30
2017-10-03T23:01:28.010Z,13.30
2017-10-03T23:03:55.655Z,13.30
2017-10-03T23:06:23.225Z,13.20
2017-10-03T23:08:51.961Z,13.10
2017-10-03T23:11:19.509Z,13.10
2017-10-03T23:13:47.130Z,13.10
2017-10-03T23:16:15.201Z,13.20
2017-10-03T23:18:42.874Z,13.20
2017-10-03T23:21:10.429Z,13.10
2017-10-03T23:23:38.021Z,13.10
2017-10-03T23:26:05.609Z,13.00
2017-10-03T23:28:33.185Z,13.00
2017-10-03T23:31:00.777Z,13.00
2017-10-03T23:33:28.365Z,12.90
2017-10-03T23:35:55.994Z,12.90
2017-10-03T23:38:24.745Z,12.80
2017-10-03T23:40:52.405Z,12.80
2017-10-03T23:43:19.964Z,12.80
2017-10-03T23:45:47.543Z,12.80
2017-10-03T23:48:15.081Z,12.70
2017-10-03T23:50:42.723Z,12.70
2017-10-03T23:53:10.325Z,12.60
2017-10-03T23:55:37.914Z,12.60
2017-10-03T23:58:05.470Z,12.60
